createdAt,value
2018-01-23T00:01:27.387Z,2.90
2018-01-23T00:03:54.976Z,3.00
2018-01-23T00:06:22.551Z,3.10
2018-01-23T00:08:50.114Z,3.80
2018-01-23T00:11:17.685Z,4.32
2018-01-23T00:13:45.252Z,5.18
2018-01-23T00:16:12.826Z,4.57
2018-01-23T00:18:40.418Z,4.85
2018-01-23T00:21:07.996Z,4.65
2018-01-23T00:23:35.600Z,4.60
2018-01-23T00:26:03.171Z,4.25
2018-01-23T00:28:31.508Z,4.32
2018-01-23T00:30:59.116Z,3.83
2018-01-23T00:33:27.477Z,4.90
2018-01-23T00:35:55.072Z,4.37
2018-01-23T00:38:23.417Z,4.05
2018-01-23T00:40:50.985Z,3.92
2018-01-23T00:43:18.817Z,5.40
2018-01-23T00:45:47.165Z,4.60
2018-01-23T00:48:14.774Z,5.55
2018-01-23T00:50:43.133Z,5.12
2018-01-23T00:53:10.784Z,7.87
2018-01-23T00:55:38.382Z,5.87
2018-01-23T00:58:05.945Z,5.00
2018-01-23T01:00:33.526Z,5.18
2018-01-23T01:03:01.108Z,6.95
2018-01-23T01:05:28.685Z,6.07
2018-01-23T01:07:56.297Z,5.87
2018-01-23T01:10:23.928Z,6.07
2018-01-23T01:12:52.105Z,5.95
2018-01-23T01:15:19.704Z,6.10
2018-01-23T01:17:48.916Z,7.00
2018-01-23T01:20:17.277Z,6.00
2018-01-23T01:22:44.862Z,6.18
2018-01-23T01:25:12.469Z,7.10
2018-01-23T01:27:40.064Z,6.87
2018-01-23T01:30:07.637Z,6.35
2018-01-23T01:32:35.898Z,5.68
2018-01-23T01:35:04.258Z,6.43
2018-01-23T01:37:31.830Z,6.07
2018-01-23T01:39:59.412Z,6.05
2018-01-23T01:42:27.794Z,5.95
2018-01-23T01:44:55.417Z,4.68
2018-01-23T01:47:23.247Z,6.35
2018-01-23T01:49:50.910Z,6.10
2018-01-23T01:52:18.654Z,5.25
2018-01-23T01:54:46.523Z,4.95
2018-01-23T01:57:14.086Z,4.80
2018-01-23T01:59:41.640Z,5.18
2018-01-23T02:02:10.061Z,4.87
2018-01-23T02:04:37.651Z,4.68
2018-01-23T02:07:05.230Z,5.28
2018-01-23T02:09:32.795Z,5.22
2018-01-23T02:12:00.375Z,4.82
2018-01-23T02:14:27.980Z,4.50
2018-01-23T02:16:56.413Z,4.40
2018-01-23T02:19:23.994Z,5.12
2018-01-23T02:21:51.577Z,4.70
2018-01-23T02:24:19.150Z,5.10
2018-01-23T02:26:46.807Z,4.30
2018-01-23T02:29:14.502Z,5.20
2018-01-23T02:31:42.111Z,4.82
2018-01-23T02:34:10.456Z,4.43
2018-01-23T02:36:38.140Z,4.75
2018-01-23T02:39:05.813Z,4.12
2018-01-23T02:41:33.409Z,4.97
2018-01-23T02:44:01.433Z,4.60
2018-01-23T02:46:29.036Z,3.85
2018-01-23T02:48:56.808Z,4.30
2018-01-23T02:51:24.394Z,4.45
2018-01-23T02:53:52.020Z,4.05
2018-01-23T02:56:20.395Z,4.00
2018-01-23T02:58:47.983Z,4.22
2018-01-23T03:01:15.557Z,3.70
2018-01-23T03:03:43.130Z,4.25
2018-01-23T03:06:10.696Z,3.70
2018-01-23T03:08:38.309Z,3.60
2018-01-23T03:11:05.895Z,5.43
2018-01-23T03:13:33.480Z,4.47
2018-01-23T03:16:01.065Z,4.72
2018-01-23T03:18:28.675Z,4.03
2018-01-23T03:20:56.288Z,4.22
2018-01-23T03:23:23.849Z,3.90
2018-01-23T03:25:51.577Z,5.18
2018-01-23T03:28:19.930Z,4.28
2018-01-23T03:30:47.519Z,3.92
2018-01-23T03:33:15.888Z,4.53
2018-01-23T03:35:43.452Z,3.90
2018-01-23T03:38:11.045Z,3.75
2018-01-23T03:40:38.627Z,4.35
2018-01-23T03:43:06.191Z,3.90
2018-01-23T03:45:33.776Z,3.97
2018-01-23T03:48:01.428Z,4.07
2018-01-23T03:50:28.985Z,3.45
2018-01-23T03:52:56.568Z,4.68
2018-01-23T03:55:24.122Z,4.95
2018-01-23T03:57:52.613Z,4.15
2018-01-23T04:00:20.188Z,3.28
2018-01-23T04:02:47.808Z,3.45
2018-01-23T04:05:16.133Z,4.40
2018-01-23T04:07:44.532Z,3.75
2018-01-23T04:10:12.100Z,3.87
2018-01-23T04:12:39.667Z,4.30
2018-01-23T04:15:07.237Z,5.25
2018-01-23T04:17:34.819Z,4.15
2018-01-23T04:20:02.392Z,3.70
2018-01-23T04:22:30.196Z,4.43
2018-01-23T04:24:57.790Z,3.75
2018-01-23T04:27:25.349Z,4.28
2018-01-23T04:29:52.933Z,3.67
2018-01-23T04:32:20.510Z,3.72
2018-01-23T04:34:48.086Z,3.70
2018-01-23T04:37:16.417Z,3.50
2018-01-23T04:39:43.997Z,3.12
2018-01-23T04:42:11.563Z,3.95
2018-01-23T04:44:39.342Z,2.83
2018-01-23T04:47:07.002Z,3.80
2018-01-23T04:49:34.609Z,3.33
2018-01-23T04:52:02.168Z,4.00
2018-01-23T04:54:29.737Z,4.07
2018-01-23T04:56:57.325Z,2.30
2018-01-23T04:59:24.894Z,3.12
2018-01-23T05:01:52.462Z,2.37
2018-01-23T05:04:20.047Z,3.45
2018-01-23T05:06:47.603Z,2.33
2018-01-23T05:09:15.175Z,2.53
2018-01-23T05:11:42.801Z,3.10
2018-01-23T05:14:11.122Z,3.80
2018-01-23T05:16:38.795Z,3.70
2018-01-23T05:19:06.369Z,3.90
2018-01-23T05:21:33.935Z,3.67
2018-01-23T05:24:01.526Z,2.78
2018-01-23T05:26:29.314Z,2.65
2018-01-23T05:28:56.889Z,2.85
2018-01-23T05:31:24.463Z,3.35
2018-01-23T05:33:52.049Z,2.95
2018-01-23T05:36:20.416Z,2.78
2018-01-23T05:38:48.029Z,3.78
2018-01-23T05:41:15.591Z,2.67
2018-01-23T05:43:43.185Z,2.72
2018-01-23T05:46:10.827Z,2.70
2018-01-23T05:48:38.397Z,3.08
2018-01-23T05:51:06.001Z,2.53
2018-01-23T05:53:33.713Z,2.92
2018-01-23T05:56:01.297Z,3.17
2018-01-23T05:58:28.945Z,2.60
2018-01-23T06:00:56.650Z,2.37
2018-01-23T06:03:24.234Z,2.25
2018-01-23T06:05:52.001Z,2.30
2018-01-23T06:08:19.626Z,2.60
2018-01-23T06:10:47.209Z,2.37
2018-01-23T06:13:14.816Z,2.10
2018-01-23T06:15:42.578Z,1.90
2018-01-23T06:18:10.136Z,1.87
2018-01-23T06:20:38.037Z,4.10
2018-01-23T06:23:05.692Z,2.25
2018-01-23T06:25:34.025Z,3.22
2018-01-23T06:28:01.590Z,3.10
2018-01-23T06:30:29.153Z,3.28
2018-01-23T06:32:56.712Z,3.55
2018-01-23T06:35:24.572Z,3.35
2018-01-23T06:37:52.228Z,3.65
2018-01-23T06:40:19.813Z,2.90
2018-01-23T06:42:47.406Z,3.58
2018-01-23T06:45:14.968Z,3.25
2018-01-23T06:47:42.537Z,2.75
2018-01-23T06:50:10.105Z,2.90
2018-01-23T06:52:37.712Z,3.65
2018-01-23T06:55:05.286Z,2.78
2018-01-23T06:57:32.861Z,2.85
2018-01-23T07:00:00.791Z,2.40
2018-01-23T07:02:28.348Z,3.75
2018-01-23T07:04:56.691Z,3.30
2018-01-23T07:07:24.244Z,3.08
2018-01-23T07:09:51.829Z,3.12
2018-01-23T07:12:19.393Z,2.65
2018-01-23T07:14:47.108Z,3.08
2018-01-23T07:17:14.695Z,2.60
2018-01-23T07:19:43.037Z,3.00
2018-01-23T07:22:10.612Z,3.20
2018-01-23T07:24:38.202Z,3.42
2018-01-23T07:27:05.748Z,2.25
2018-01-23T07:29:33.404Z,4.60
2018-01-23T07:32:01.220Z,3.03
2018-01-23T07:34:28.808Z,2.70
2018-01-23T07:36:56.385Z,2.50
2018-01-23T07:39:23.936Z,3.28
2018-01-23T07:41:51.716Z,3.20
2018-01-23T07:44:20.104Z,3.30
2018-01-23T07:46:48.445Z,4.18
2018-01-23T07:49:16.032Z,3.37
2018-01-23T07:51:43.606Z,3.62
2018-01-23T07:54:11.191Z,4.12
2018-01-23T07:56:38.784Z,4.03
2018-01-23T07:59:06.332Z,3.22
2018-01-23T08:01:33.912Z,3.33
2018-01-23T08:04:01.662Z,4.75
2018-01-23T08:06:29.259Z,3.60
2018-01-23T08:08:56.826Z,3.70
2018-01-23T08:11:24.420Z,3.85
2018-01-23T08:13:52.038Z,4.90
2018-01-23T08:16:20.358Z,4.55
2018-01-23T08:18:48.729Z,6.10
2018-01-23T08:21:16.312Z,5.40
2018-01-23T08:23:43.875Z,5.37
2018-01-23T08:26:11.473Z,4.82
2018-01-23T08:28:39.035Z,4.85
2018-01-23T08:31:06.723Z,4.45
2018-01-23T08:33:34.307Z,4.78
2018-01-23T08:36:01.883Z,4.45
2018-01-23T08:38:29.722Z,4.55
2018-01-23T08:40:57.284Z,4.57
2018-01-23T08:43:24.845Z,4.53
2018-01-23T08:45:53.189Z,5.05
2018-01-23T08:48:20.885Z,4.35
2018-01-23T08:50:49.227Z,3.80
2018-01-23T08:53:16.893Z,4.35
2018-01-23T08:55:44.600Z,3.67
2018-01-23T08:58:12.154Z,3.30
2018-01-23T09:00:39.737Z,3.97
2018-01-23T09:03:07.284Z,3.83
2018-01-23T09:05:34.845Z,3.30
2018-01-23T09:08:02.412Z,3.30
2018-01-23T09:10:30.103Z,3.12
2018-01-23T09:12:57.776Z,2.50
2018-01-23T09:15:25.376Z,3.33
2018-01-23T09:17:52.937Z,3.65
2018-01-23T09:20:20.526Z,2.62
2018-01-23T09:22:48.413Z,3.80
2018-01-23T09:25:15.984Z,3.35
2018-01-23T09:27:43.540Z,3.12
2018-01-23T09:30:11.117Z,3.75
2018-01-23T09:32:38.696Z,4.37
2018-01-23T09:35:06.434Z,4.62
2018-01-23T09:37:34.077Z,4.30
2018-01-23T09:40:02.431Z,4.55
2018-01-23T09:42:30.006Z,5.03
2018-01-23T09:44:57.564Z,4.03
2018-01-23T09:47:25.128Z,4.55
2018-01-23T09:49:52.724Z,4.25
2018-01-23T09:52:20.304Z,4.15
2018-01-23T09:54:47.960Z,5.40
2018-01-23T09:57:15.520Z,4.37
2018-01-23T09:59:43.098Z,4.65
2018-01-23T10:02:10.666Z,4.00
2018-01-23T10:04:38.280Z,5.75
2018-01-23T10:07:06.346Z,3.92
2018-01-23T10:09:33.911Z,3.58
2018-01-23T10:12:01.640Z,3.45
2018-01-23T10:14:29.328Z,3.35
2018-01-23T10:16:56.886Z,3.30
2018-01-23T10:19:24.525Z,3.58
2018-01-23T10:21:52.191Z,4.53
2018-01-23T10:24:19.802Z,3.72
2018-01-23T10:26:47.654Z,3.05
2018-01-23T10:29:15.270Z,3.53
2018-01-23T10:31:42.879Z,3.05
2018-01-23T10:34:10.446Z,3.00
2018-01-23T10:36:38.046Z,2.92
2018-01-23T10:39:05.620Z,3.20
2018-01-23T10:41:33.972Z,3.50
2018-01-23T10:44:01.544Z,4.72
2018-01-23T10:46:29.173Z,7.43
2018-01-23T10:48:56.924Z,3.50
2018-01-23T10:51:24.551Z,3.95
2018-01-23T10:53:52.126Z,3.97
2018-01-23T10:56:19.712Z,3.05
2018-01-23T10:58:47.279Z,3.25
2018-01-23T11:01:14.941Z,3.20
2018-01-23T11:03:42.521Z,3.53
2018-01-23T11:06:10.110Z,2.97
2018-01-23T11:08:37.704Z,3.72
2018-01-23T11:11:05.281Z,2.55
2018-01-23T11:13:33.616Z,3.45
2018-01-23T11:16:01.196Z,8.25
2018-01-23T11:18:28.857Z,2.80
2018-01-23T11:20:56.420Z,3.12
2018-01-23T11:23:24.021Z,2.28
2018-01-23T11:25:51.808Z,3.08
2018-01-23T11:28:19.426Z,2.78
2018-01-23T11:30:49.178Z,2.35
2018-01-23T11:33:16.788Z,2.60
2018-01-23T11:35:44.344Z,2.10
2018-01-23T11:38:11.910Z,3.60
2018-01-23T11:40:39.690Z,2.58
2018-01-23T11:43:07.266Z,2.40
2018-01-23T11:45:34.858Z,1.80
2018-01-23T11:48:02.585Z,2.97
2018-01-23T11:50:30.182Z,2.50
2018-01-23T11:52:57.797Z,2.00
2018-01-23T11:55:26.154Z,2.37
2018-01-23T11:57:56.924Z,1.92
2018-01-23T12:00:26.132Z,2.65
2018-01-23T12:02:55.355Z,1.70
2018-01-23T12:05:24.661Z,3.30
2018-01-23T12:07:53.905Z,2.30
2018-01-23T12:10:23.143Z,1.98
2018-01-23T12:12:52.468Z,2.25
2018-01-23T12:15:21.807Z,2.47
2018-01-23T12:17:51.049Z,2.78
2018-01-23T12:20:20.402Z,2.78
2018-01-23T12:22:49.626Z,2.37
2018-01-23T12:25:18.848Z,2.17
2018-01-23T12:27:48.099Z,2.33
2018-01-23T12:30:17.363Z,1.60
2018-01-23T12:32:46.590Z,2.30
2018-01-23T12:35:15.823Z,1.95
2018-01-23T12:37:45.048Z,1.80
2018-01-23T12:40:14.331Z,2.10
2018-01-23T12:42:43.559Z,2.00
2018-01-23T12:45:13.486Z,1.95
2018-01-23T12:47:42.696Z,2.85
2018-01-23T12:50:11.952Z,2.37
2018-01-23T12:52:41.164Z,2.97
2018-01-23T12:55:10.445Z,2.15
2018-01-23T12:57:39.664Z,2.30
2018-01-23T13:00:08.885Z,2.97
2018-01-23T13:02:38.121Z,2.25
2018-01-23T13:05:07.347Z,2.30
2018-01-23T13:07:36.607Z,2.00
2018-01-23T13:10:05.833Z,2.10
2018-01-23T13:12:35.060Z,2.58
2018-01-23T13:15:04.272Z,1.85
2018-01-23T13:17:33.614Z,2.37
2018-01-23T13:20:02.818Z,1.95
2018-01-23T13:22:32.061Z,2.40
2018-01-23T13:25:01.268Z,2.25
2018-01-23T13:27:30.495Z,1.87
2018-01-23T13:29:59.782Z,2.37
2018-01-23T13:32:29.000Z,1.87
2018-01-23T13:34:58.257Z,1.85
2018-01-23T13:37:27.499Z,3.25
2018-01-23T13:39:56.722Z,1.92
2018-01-23T13:42:25.964Z,2.42
2018-01-23T13:44:55.429Z,2.45
2018-01-23T13:47:24.645Z,2.62
2018-01-23T13:49:53.882Z,2.40
2018-01-23T13:52:23.103Z,2.92
2018-01-23T13:54:52.323Z,2.55
2018-01-23T13:57:21.677Z,2.67
2018-01-23T13:59:51.008Z,3.45
2018-01-23T14:02:20.350Z,2.05
2018-01-23T14:04:50.009Z,2.03
2018-01-23T14:07:19.411Z,2.53
2018-01-23T14:09:48.676Z,2.10
2018-01-23T14:12:18.029Z,2.50
2018-01-23T14:14:47.245Z,2.25
2018-01-23T14:17:16.503Z,2.00
2018-01-23T14:19:45.764Z,3.20
2018-01-23T14:22:15.008Z,2.40
2018-01-23T14:24:44.304Z,2.60
2018-01-23T14:27:13.522Z,2.75
2018-01-23T14:29:42.728Z,2.45
2018-01-23T14:32:11.998Z,2.90
2018-01-23T14:34:41.388Z,2.62
2018-01-23T14:37:10.598Z,2.58
2018-01-23T14:39:39.882Z,2.60
2018-01-23T14:42:09.113Z,3.08
2018-01-23T14:44:38.962Z,2.97
2018-01-23T14:47:08.167Z,3.20
2018-01-23T14:49:37.541Z,3.17
2018-01-23T14:52:06.808Z,2.95
2018-01-23T14:54:36.017Z,3.92
2018-01-23T14:57:05.334Z,4.60
2018-01-23T14:59:34.552Z,3.50
2018-01-23T15:02:03.905Z,3.30
2018-01-23T15:04:33.633Z,3.83
2018-01-23T15:07:05.510Z,3.50
2018-01-23T15:09:38.384Z,4.10
2018-01-23T15:12:08.032Z,3.83
2018-01-23T15:14:37.456Z,3.55
2018-01-23T15:17:06.675Z,3.40
2018-01-23T15:19:36.081Z,3.37
2018-01-23T15:22:05.799Z,3.00
2018-01-23T15:24:35.037Z,2.60
2018-01-23T15:27:04.310Z,2.08
2018-01-23T15:29:33.795Z,2.67
2018-01-23T15:32:08.869Z,2.40
2018-01-23T15:34:40.366Z,1.83
2018-01-23T15:37:11.761Z,2.92
2018-01-23T15:39:41.039Z,2.15
2018-01-23T15:42:10.264Z,2.05
2018-01-23T15:44:39.503Z,1.92
2018-01-23T15:47:08.711Z,2.45
2018-01-23T15:49:37.974Z,3.20
2018-01-23T15:52:07.186Z,2.40
2018-01-23T15:54:36.452Z,2.15
2018-01-23T15:57:05.791Z,2.15
2018-01-23T15:59:35.154Z,2.92
2018-01-23T16:02:04.701Z,2.60
2018-01-23T16:07:25.049Z,2.17
2018-01-23T16:09:54.536Z,2.20
2018-01-23T16:12:24.001Z,2.58
2018-01-23T16:14:53.522Z,3.00
2018-01-23T16:17:22.974Z,2.90
2018-01-23T16:19:52.359Z,3.00
2018-01-23T16:22:21.665Z,2.97
2018-01-23T16:24:50.926Z,4.00
2018-01-23T16:27:20.147Z,3.62
2018-01-23T16:29:49.351Z,2.95
2018-01-23T16:32:18.601Z,3.30
2018-01-23T16:34:48.031Z,3.42
2018-01-23T16:37:17.515Z,3.15
2018-01-23T16:39:46.744Z,3.72
2018-01-23T16:42:16.012Z,3.65
2018-01-23T16:44:45.262Z,4.20
2018-01-23T16:47:14.505Z,3.42
2018-01-23T16:49:45.997Z,3.87
2018-01-23T16:52:18.212Z,4.55
2018-01-23T16:54:47.483Z,3.70
2018-01-23T16:57:16.749Z,4.18
2018-01-23T16:59:46.028Z,3.70
2018-01-23T17:02:15.260Z,4.35
2018-01-23T17:04:44.788Z,3.25
2018-01-23T17:07:14.048Z,3.35
2018-01-23T17:09:43.582Z,3.45
2018-01-23T17:12:12.833Z,3.00
2018-01-23T17:14:42.063Z,2.95
2018-01-23T17:17:11.310Z,3.85
2018-01-23T17:19:40.548Z,3.35
2018-01-23T17:22:09.779Z,3.83
2018-01-23T17:24:39.011Z,3.28
2018-01-23T17:27:08.332Z,3.78
2018-01-23T17:29:42.861Z,3.83
2018-01-23T17:32:12.228Z,4.00
2018-01-23T17:34:44.002Z,4.10
2018-01-23T17:37:13.815Z,4.65
2018-01-23T17:39:44.509Z,7.10
2018-01-23T17:42:13.958Z,4.82
2018-01-23T17:44:43.340Z,5.22
2018-01-23T17:47:12.611Z,4.35
2018-01-23T17:49:41.850Z,4.45
2018-01-23T17:52:11.319Z,4.50
2018-01-23T17:54:40.549Z,4.60
2018-01-23T17:57:09.768Z,5.28
2018-01-23T17:59:39.035Z,3.92
2018-01-23T18:02:08.547Z,4.12
2018-01-23T18:04:37.773Z,3.85
2018-01-23T18:07:06.995Z,4.35
2018-01-23T18:09:36.212Z,4.10
2018-01-23T18:12:05.438Z,4.03
2018-01-23T18:14:34.677Z,4.50
2018-01-23T18:17:03.977Z,4.20
2018-01-23T18:19:33.188Z,4.78
2018-01-23T18:22:02.410Z,4.60
2018-01-23T18:24:31.662Z,4.40
2018-01-23T18:27:00.911Z,4.20
2018-01-23T18:29:30.148Z,4.37
2018-01-23T18:32:00.290Z,4.97
2018-01-23T18:34:29.655Z,5.15
2018-01-23T18:36:58.859Z,5.20
2018-01-23T18:39:28.156Z,5.45
2018-01-23T18:41:57.465Z,5.47
2018-01-23T18:44:26.688Z,4.85
2018-01-23T18:46:55.949Z,5.35
2018-01-23T18:49:23.513Z,5.40
2018-01-23T18:51:51.078Z,5.55
2018-01-23T18:54:18.666Z,5.20
2018-01-23T18:56:46.299Z,5.80
2018-01-23T18:59:14.646Z,5.00
2018-01-23T19:01:42.460Z,5.12
2018-01-23T19:04:10.826Z,5.03
2018-01-23T19:06:38.395Z,5.37
2018-01-23T19:09:06.142Z,4.90
2018-01-23T19:11:33.708Z,5.22
2018-01-23T19:14:01.271Z,5.55
2018-01-23T19:16:28.885Z,6.50
2018-01-23T19:18:56.529Z,5.68
2018-01-23T19:21:24.217Z,5.60
2018-01-23T19:23:51.810Z,5.50
2018-01-23T19:26:19.454Z,5.40
2018-01-23T19:28:47.162Z,5.45
2018-01-23T19:31:15.038Z,5.62
2018-01-23T19:33:42.645Z,5.30
2018-01-23T19:36:10.996Z,4.65
2018-01-23T19:38:38.597Z,5.35
2018-01-23T19:41:06.934Z,5.70
2018-01-23T19:43:34.512Z,5.75
2018-01-23T19:46:03.328Z,5.32
2018-01-23T19:48:31.008Z,5.78
2018-01-23T19:50:58.644Z,5.70
2018-01-23T19:53:26.216Z,5.30
2018-01-23T19:55:55.304Z,5.50
2018-01-23T19:58:23.729Z,5.97
2018-01-23T20:00:51.372Z,5.80
2018-01-23T20:03:19.032Z,5.97
2018-01-23T20:05:46.678Z,5.70
2018-01-23T20:08:14.676Z,5.12
2018-01-23T20:10:42.253Z,4.78
2018-01-23T20:13:09.993Z,6.40
2018-01-23T20:15:37.591Z,6.28
2018-01-23T20:18:07.644Z,5.03
2018-01-23T20:20:36.536Z,5.40
2018-01-23T20:23:06.072Z,4.90
2018-01-23T20:25:33.642Z,5.07
2018-01-23T20:28:03.046Z,5.45
2018-01-23T20:30:30.644Z,5.07
2018-01-23T20:32:58.208Z,4.68
2018-01-23T20:35:26.567Z,5.20
2018-01-23T20:37:54.687Z,5.18
2018-01-23T20:40:22.270Z,4.37
2018-01-23T20:42:49.821Z,4.80
2018-01-23T20:45:17.379Z,4.05
2018-01-23T20:47:45.182Z,5.12
2018-01-23T20:50:13.531Z,4.70
2018-01-23T20:52:41.503Z,5.32
2018-01-23T20:55:09.095Z,5.00
2018-01-23T20:57:36.982Z,4.12
2018-01-23T21:00:04.561Z,4.22
2018-01-23T21:02:33.680Z,5.03
2018-01-23T21:05:01.264Z,5.80
2018-01-23T21:07:28.885Z,4.68
2018-01-23T21:09:56.474Z,3.37
2018-01-23T21:12:24.058Z,4.37
2018-01-23T21:14:52.139Z,4.30
2018-01-23T21:17:19.696Z,3.97
2018-01-23T21:19:47.374Z,3.92
2018-01-23T21:22:14.956Z,3.92
2018-01-23T21:24:42.525Z,4.40
2018-01-23T21:27:10.183Z,4.53
2018-01-23T21:29:37.742Z,3.58
2018-01-23T21:32:05.331Z,4.03
2018-01-23T21:34:32.900Z,4.00
2018-01-23T21:37:00.582Z,5.30
2018-01-23T21:39:28.176Z,3.67
2018-01-23T21:41:56.216Z,3.50
2018-01-23T21:44:23.899Z,4.35
2018-01-23T21:46:51.800Z,3.85
2018-01-23T21:49:19.412Z,3.50
2018-01-23T21:51:47.848Z,3.70
2018-01-23T21:54:15.415Z,3.70
2018-01-23T21:56:43.174Z,4.50
2018-01-23T21:59:10.760Z,3.37
2018-01-23T22:01:39.367Z,2.95
2018-01-23T22:04:06.936Z,4.00
2018-01-23T22:06:34.530Z,3.45
2018-01-23T22:09:02.109Z,4.78
2018-01-23T22:11:29.696Z,3.50
2018-01-23T22:13:58.828Z,3.97
2018-01-23T22:16:26.416Z,4.03
2018-01-23T22:18:54.002Z,2.92
2018-01-23T22:23:34.008Z,3.22
2018-01-23T22:26:01.791Z,3.42
2018-01-23T22:28:29.358Z,3.42
2018-01-23T22:30:57.020Z,3.80
2018-01-23T22:33:24.596Z,3.30
2018-01-23T22:35:52.176Z,2.70
2018-01-23T22:38:20.225Z,3.90
2018-01-23T22:40:47.794Z,3.20
2018-01-23T22:43:15.503Z,3.90
2018-01-23T22:45:43.084Z,3.00
2018-01-23T22:48:10.741Z,3.28
2018-01-23T22:50:38.349Z,3.80
2018-01-23T22:53:05.973Z,3.10
2018-01-23T22:55:36.144Z,3.50
2018-01-23T22:58:03.713Z,3.42
2018-01-23T23:00:31.463Z,3.25
2018-01-23T23:02:59.064Z,3.25
2018-01-23T23:05:26.715Z,2.70
2018-01-23T23:07:54.295Z,3.45
2018-01-23T23:10:22.633Z,3.33
2018-01-23T23:12:50.969Z,3.03
2018-01-23T23:15:18.630Z,2.72
2018-01-23T23:17:46.436Z,3.20
2018-01-23T23:20:14.008Z,3.00
2018-01-23T23:22:41.559Z,2.53
2018-01-23T23:25:09.132Z,2.87
2018-01-23T23:27:36.702Z,3.17
2018-01-23T23:30:04.328Z,2.75
2018-01-23T23:32:32.678Z,2.97
2018-01-23T23:35:00.724Z,2.55
2018-01-23T23:37:29.153Z,3.53
2018-01-23T23:39:56.756Z,3.50
2018-01-23T23:42:24.320Z,2.62
2018-01-23T23:44:51.898Z,2.75
2018-01-23T23:47:19.488Z,2.35
2018-01-23T23:49:47.866Z,3.15
2018-01-23T23:52:16.205Z,3.42
2018-01-23T23:54:43.781Z,2.65
2018-01-23T23:57:11.354Z,2.42
2018-01-23T23:59:38.931Z,2.03
